| time (UTC) | temp C | wind direction | speed KPH | gust KPH | rain 1hr cm | rain 24hr cm | rain mn cm | humidity % | barometer mb |
| 20260510174737 | 6 | 296 | 1.6 | 4.8 | 0.00 | 0.00 | 0.00 | 52 | 1022.6 |
| 20260510174234 | 6 | 351 | 6.4 | 12.9 | 0.00 | 0.00 | 0.00 | 52 | 1022.5 |
| 20260510173730 | 6 | 307 | 6.4 | 9.7 | 0.00 | 0.00 | 0.00 | 52 | 1022.5 |
| 20260510173226 | 7 | 290 | 1.6 | 4.8 | 0.00 | 0.00 | 0.00 | 52 | 1022.4 |
| 20260510172721 | 7 | 336 | 3.2 | 11.3 | 0.00 | 0.00 | 0.00 | 49 | 1022.5 |
| 20260510172218 | 7 | 343 | 12.9 | 14.5 | 0.00 | 0.00 | 0.00 | 53 | 1022.4 |
| 20260510171715 | 7 | 324 | 3.2 | 4.8 | 0.00 | 0.00 | 0.00 | 54 | 1022.4 |
| 20260510171212 | 7 | 334 | 4.8 | 6.4 | 0.00 | 0.00 | 0.00 | 51 | 1022.3 |
| 20260510170709 | 6 | 323 | 6.4 | 9.7 | 0.00 | 0.00 | 0.00 | 55 | 1022.4 |
| 20260510170205 | 7 | 346 | 3.2 | 4.8 | 0.00 | 0.00 | 0.00 | 55 | 1022.2 |
| 20260510165701 | 7 | 317 | 3.2 | 6.4 | 0.00 | 0.00 | 0.00 | 55 | 1022.3 |
| 20260510165157 | 7 | 346 | 6.4 | 14.5 | 0.00 | 0.00 | 0.00 | 53 | 1022.2 |
| 20260510164655 | 7 | 343 | 3.2 | 4.8 | 0.00 | 0.00 | 0.00 | 53 | 1022.4 |
| 20260510164152 | 8 | 358 | 3.2 | 6.4 | 0.00 | 0.00 | 0.00 | 49 | 1022.2 |
| 20260510163647 | 7 | 341 | 4.8 | 9.7 | 0.00 | 0.00 | 0.00 | 51 | 1022.0 |
| 20260510163143 | 7 | 268 | 3.2 | 4.8 | 0.00 | 0.00 | 0.00 | 53 | 1022.1 |
| 20260510162643 | 8 | 330 | 3.2 | 4.8 | 0.00 | 0.00 | 0.00 | 50 | 1022.1 |
| 20260510162140 | 7 | 340 | 3.2 | 3.2 | 0.00 | 0.00 | 0.00 | 50 | 1021.9 |
| 20260510161636 | 6 | 280 | 3.2 | 3.2 | 0.00 | 0.00 | 0.00 | 53 | 1021.9 |
| 20260510161133 | 7 | 317 | 3.2 | 6.4 | 0.00 | 0.00 | 0.00 | 52 | 1022.0 |
| 20260510160630 | 6 | 287 | 0.0 | 4.8 | 0.00 | 0.00 | 0.00 | 55 | 1021.8 |
| 20260510160130 | 6 | 294 | 3.2 | 3.2 | 0.00 | 0.00 | 0.00 | 53 | 1021.8 |
| 20260510155626 | 6 | 317 | 1.6 | 9.7 | 0.00 | 0.00 | 0.00 | 52 | 1021.8 |
| 20260510155122 | 7 | 275 | 1.6 | 3.2 | 0.00 | 0.00 | 0.00 | 50 | 1021.7 |
| 20260510154618 | 7 | 324 | 3.2 | 4.8 | 0.00 | 0.00 | 0.00 | 47 | 1021.7 |
| 20260510154114 | 7 | 284 | 0.0 | 3.2 | 0.00 | 0.00 | 0.00 | 51 | 1021.6 |
| 20260510153609 | 6 | 270 | 4.8 | 6.4 | 0.00 | 0.00 | 0.00 | 53 | 1021.5 |
| 20260510153106 | 6 | 278 | 3.2 | 4.8 | 0.00 | 0.00 | 0.00 | 51 | 1021.5 |
| 20260510152602 | 7 | 334 | 1.6 | 3.2 | 0.00 | 0.00 | 0.00 | 55 | 1021.3 |
| 20260510152059 | 6 | 317 | 4.8 | 6.4 | 0.00 | 0.00 | 0.00 | 52 | 1021.2 |
| 20260510151555 | 6 | 357 | 3.2 | 6.4 | 0.00 | 0.00 | 0.00 | 55 | 1021.5 |
| 20260510151053 | 5 | 329 | 4.8 | 6.4 | 0.00 | 0.00 | 0.00 | 55 | 1021.3 |
| 20260510150547 | 6 | 293 | 1.6 | 9.7 | 0.00 | 0.00 | 0.00 | 55 | 1021.2 |
| 20260510150044 | 5 | 299 | 3.2 | 6.4 | 0.00 | 0.00 | 0.00 | 55 | 1021.2 |
| 20260510145541 | 5 | 294 | 6.4 | 11.3 | 0.00 | 0.00 | 0.00 | 56 | 1021.1 |
| 20260510145037 | 6 | 358 | 8.0 | 9.7 | 0.00 | 0.00 | 0.00 | 56 | 1020.9 |
| 20260510144534 | 6 | 327 | 3.2 | 3.2 | 0.00 | 0.00 | 0.00 | 56 | 1021.0 |
| 20260510144030 | 6 | 296 | 0.0 | 1.6 | 0.00 | 0.00 | 0.00 | 56 | 1020.9 |
| 20260510143525 | 6 | 339 | 3.2 | 4.8 | 0.00 | 0.00 | 0.00 | 58 | 1020.9 |
| 20260510143022 | 6 | 270 | 1.6 | 6.4 | 0.00 | 0.00 | 0.00 | 58 | 1020.8 |
| 20260510142519 | 6 | 298 | 0.0 | 3.2 | 0.00 | 0.00 | 0.00 | 56 | 1020.9 |
| 20260510142015 | 5 | 334 | 8.0 | 12.9 | 0.00 | 0.00 | 0.00 | 58 | 1020.8 |
| 20260510141512 | 5 | 266 | 3.2 | 6.4 | 0.00 | 0.00 | 0.00 | 60 | 1021.0 |
| 20260510141010 | 5 | 28 | 3.2 | 3.2 | 0.00 | 0.00 | 0.00 | 62 | 1020.8 |
| 20260510140506 | 5 | 266 | 3.2 | 9.7 | 0.00 | 0.00 | 0.00 | 61 | 1020.9 |
| 20260510140006 | 5 | 314 | 4.8 | 6.4 | 0.00 | 0.00 | 0.00 | 60 | 1020.7 |
| 20260510135501 | 5 | 338 | 1.6 | 6.4 | 0.00 | 0.00 | 0.00 | 60 | 1020.7 |
| 20260510134958 | 5 | 329 | 1.6 | 4.8 | 0.00 | 0.00 | 0.00 | 59 | 1020.6 |
| 20260510134455 | 6 | 329 | 1.6 | 9.7 | 0.00 | 0.00 | 0.00 | 60 | 1020.7 |
| 20260510133952 | 5 | 311 | 1.6 | 3.2 | 0.00 | 0.00 | 0.00 | 62 | 1020.6 |
| 20260510133448 | 5 | 288 | 4.8 | 6.4 | 0.00 | 0.00 | 0.00 | 62 | 1020.5 |
| 20260510132943 | 5 | 342 | 4.8 | 6.4 | 0.00 | 0.00 | 0.00 | 63 | 1020.5 |
| 20260510132441 | 5 | 307 | 1.6 | 3.2 | 0.00 | 0.00 | 0.00 | 64 | 1020.4 |
| 20260510131938 | 5 | 295 | 4.8 | 6.4 | 0.00 | 0.00 | 0.00 | 65 | 1020.4 |
| 20260510131435 | 5 | 334 | 4.8 | 9.7 | 0.00 | 0.00 | 0.00 | 66 | 1020.5 |
| 20260510130932 | 5 | 298 | 0.0 | 0.0 | 0.00 | 0.00 | 0.00 | 68 | 1020.3 |
| 20260510130429 | 5 | 316 | 3.2 | 3.2 | 0.00 | 0.00 | 0.00 | 68 | 1020.3 |
| 20260510125926 | 5 | 272 | 1.6 | 3.2 | 0.00 | 0.00 | 0.00 | 67 | 1020.4 |
| 20260510125421 | 4 | 271 | 1.6 | 6.4 | 0.00 | 0.00 | 0.00 | 68 | 1020.4 |
| 20260510124919 | 4 | 289 | 3.2 | 3.2 | 0.00 | 0.00 | 0.00 | 69 | 1020.1 |
| 20260510124415 | 4 | 274 | 1.6 | 3.2 | 0.00 | 0.00 | 0.00 | 69 | 1020.1 |
| 20260510123912 | 3 | 289 | 1.6 | 4.8 | 0.00 | 0.00 | 0.00 | 70 | 1020.0 |
| 20260510123407 | 3 | 285 | 0.0 | 3.2 | 0.00 | 0.00 | 0.00 | 70 | 1020.2 |
| 20260510122904 | 3 | 312 | 3.2 | 3.2 | 0.00 | 0.00 | 0.00 | 71 | 1019.9 |
| 20260510122359 | 3 | 311 | 1.6 | 3.2 | 0.00 | 0.00 | 0.00 | 71 | 1019.8 |
| 20260510121855 | 3 | 271 | 0.0 | 1.6 | 0.00 | 0.00 | 0.00 | 71 | 1020.0 |
| 20260510121353 | 3 | 291 | 0.0 | 3.2 | 0.00 | 0.00 | 0.00 | 71 | 1019.7 |
| 20260510120850 | 2 | 297 | 3.2 | 3.2 | 0.00 | 0.00 | 0.00 | 72 | 1019.9 |
| 20260510120348 | 2 | 281 | 0.0 | 0.0 | 0.00 | 0.00 | 0.00 | 73 | 1019.9 |
| 20260510115843 | 2 | 291 | 0.0 | 1.6 | 0.00 | 0.00 | 0.00 | 73 | 1019.9 |
| 20260510115341 | 2 | 293 | 1.6 | 3.2 | 0.00 | 0.00 | 0.00 | 74 | 1019.7 |
| 20260510114836 | 1 | 277 | 0.0 | 1.6 | 0.00 | 0.00 | 0.00 | 76 | 1019.7 |
| 20260510114334 | 1 | 268 | 0.0 | 1.6 | 0.00 | 0.00 | 0.00 | 76 | 1019.6 |
| 20260510113833 | 1 | 273 | 0.0 | 0.0 | 0.00 | 0.00 | 0.00 | 76 | 1019.4 |
| 20260510113330 | 1 | 281 | 0.0 | 0.0 | 0.00 | 0.00 | 0.00 | 77 | 1019.5 |
| 20260510112827 | 1 | 281 | 0.0 | 0.0 | 0.00 | 0.00 | 0.00 | 77 | 1019.4 |
| 20260510112324 | 0 | 278 | 0.0 | 0.0 | 0.00 | 0.00 | 0.00 | 77 | 1019.2 |
| 20260510111820 | 0 | 278 | 0.0 | 0.0 | 0.00 | 0.00 | 0.00 | 78 | 1019.2 |
| 20260510111317 | 0 | 278 | 0.0 | 0.0 | 0.00 | 0.00 | 0.00 | 79 | 1019.2 |
| 20260510110817 | 0 | 278 | 0.0 | 0.0 | 0.00 | 0.00 | 0.00 | 80 | 1018.9 |
| 20260510110314 | 0 | 278 | 0.0 | 0.0 | 0.00 | 0.00 | 0.00 | 80 | 1018.9 |
| 20260510105810 | 0 | 278 | 0.0 | 0.0 | 0.00 | 0.00 | 0.00 | 81 | 1018.9 |
| 20260510105306 | 0 | 278 | 0.0 | 0.0 | 0.00 | 0.00 | 0.00 | 82 | 1018.8 |
| 20260510104801 | 0 | 278 | 0.0 | 0.0 | 0.00 | 0.00 | 0.00 | 81 | 1018.6 |
| 20260510104259 | -1 | 278 | 0.0 | 0.0 | 0.00 | 0.00 | 0.00 | 81 | 1018.8 |
| 20260510103755 | 0 | 278 | 0.0 | 0.0 | 0.00 | 0.00 | 0.00 | 82 | 1018.5 |
| 20260510103252 | 0 | 278 | 0.0 | 0.0 | 0.00 | 0.00 | 0.00 | 82 | 1018.7 |
| 20260510102751 | 0 | 278 | 0.0 | 0.0 | 0.00 | 0.00 | 0.00 | 81 | 1018.6 |
| 20260510102247 | 0 | 278 | 0.0 | 0.0 | 0.00 | 0.00 | 0.00 | 80 | 1018.5 |
| 20260510101745 | 0 | 278 | 0.0 | 0.0 | 0.00 | 0.00 | 0.00 | 79 | 1018.4 |
| 20260510101244 | 0 | 278 | 0.0 | 0.0 | 0.00 | 0.00 | 0.00 | 78 | 1018.3 |
| 20260510100739 | 0 | 278 | 0.0 | 0.0 | 0.00 | 0.00 | 0.00 | 77 | 1018.4 |
| 20260510100238 | 0 | 278 | 0.0 | 0.0 | 0.00 | 0.00 | 0.00 | 76 | 1018.3 |
| 20260510095733 | 0 | 278 | 0.0 | 0.0 | 0.00 | 0.00 | 0.00 | 76 | 1018.1 |
| 20260510095228 | 0 | 278 | 0.0 | 0.0 | 0.00 | 0.00 | 0.00 | 76 | 1017.9 |
| 20260510094727 | 0 | 278 | 0.0 | 0.0 | 0.00 | 0.00 | 0.00 | 77 | 1018.0 |
| 20260510094222 | 0 | 278 | 0.0 | 0.0 | 0.00 | 0.00 | 0.00 | 78 | 1018.1 |
| 20260510093718 | 0 | 278 | 0.0 | 0.0 | 0.00 | 0.00 | 0.00 | 78 | 1018.1 |
| 20260510093216 | 0 | 278 | 0.0 | 0.0 | 0.00 | 0.00 | 0.00 | 78 | 1017.9 |
| 20260510092712 | 0 | 277 | 0.0 | 0.0 | 0.00 | 0.00 | 0.00 | 78 | 1018.0 |
| 20260510092208 | 0 | 278 | 0.0 | 0.0 | 0.00 | 0.00 | 0.00 | 77 | 1017.9 |
| 20260510091704 | 1 | 278 | 0.0 | 0.0 | 0.00 | 0.00 | 0.00 | 74 | 1017.9 |
| 20260510091200 | 1 | 278 | 0.0 | 0.0 | 0.00 | 0.00 | 0.00 | 74 | 1017.8 |
| 20260510090652 | 1 | 278 | 0.0 | 0.0 | 0.00 | 0.00 | 0.00 | 74 | 1017.7 |
| 20260510090149 | 1 | 278 | 0.0 | 0.0 | 0.00 | 0.00 | 0.00 | 71 | 1017.5 |
| 20260510085644 | 1 | 278 | 0.0 | 0.0 | 0.00 | 0.00 | 0.00 | 71 | 1017.6 |
| 20260510085139 | 1 | 277 | 0.0 | 0.0 | 0.00 | 0.00 | 0.00 | 68 | 1017.6 |
| 20260510084636 | 2 | 277 | 0.0 | 0.0 | 0.00 | 0.00 | 0.00 | 69 | 1017.4 |
| 20260510084132 | 2 | 277 | 0.0 | 0.0 | 0.00 | 0.00 | 0.00 | 72 | 1017.6 |
| 20260510083629 | 2 | 278 | 0.0 | 0.0 | 0.00 | 0.00 | 0.00 | 64 | 1017.4 |
| 20260510083125 | 2 | 278 | 0.0 | 0.0 | 0.00 | 0.00 | 0.00 | 67 | 1017.4 |
| 20260510082621 | 2 | 277 | 0.0 | 1.6 | 0.00 | 0.00 | 0.00 | 67 | 1017.4 |
| 20260510082117 | 2 | 292 | 0.0 | 0.0 | 0.00 | 0.00 | 0.00 | 68 | 1017.2 |
| 20260510081612 | 1 | 314 | 1.6 | 1.6 | 0.00 | 0.00 | 0.00 | 70 | 1017.3 |
| 20260510081108 | 1 | 280 | 0.0 | 0.0 | 0.00 | 0.00 | 0.00 | 76 | 1017.2 |
| 20260510080607 | 0 | 280 | 0.0 | 0.0 | 0.00 | 0.00 | 0.00 | 80 | 1017.2 |
| 20260510080104 | 0 | 281 | 0.0 | 0.0 | 0.00 | 0.00 | 0.00 | 81 | 1017.1 |
| 20260510075601 | 0 | 281 | 0.0 | 0.0 | 0.00 | 0.00 | 0.00 | 82 | 1017.2 |
| 20260510075058 | 0 | 281 | 0.0 | 0.0 | 0.00 | 0.00 | 0.00 | 81 | 1017.2 |
| 20260510074555 | 0 | 281 | 0.0 | 0.0 | 0.00 | 0.00 | 0.00 | 76 | 1017.2 |
| 20260510074051 | 0 | 281 | 0.0 | 0.0 | 0.00 | 0.00 | 0.00 | 77 | 1017.0 |
| 20260510073547 | 0 | 281 | 0.0 | 0.0 | 0.00 | 0.00 | 0.00 | 77 | 1017.0 |
| 20260510073044 | 0 | 281 | 0.0 | 0.0 | 0.00 | 0.00 | 0.00 | 77 | 1016.9 |
| 20260510072541 | 0 | 281 | 0.0 | 0.0 | 0.00 | 0.00 | 0.00 | 76 | 1017.0 |
| 20260510072036 | 0 | 281 | 0.0 | 0.0 | 0.00 | 0.00 | 0.00 | 77 | 1017.1 |
| 20260510071533 | 0 | 281 | 0.0 | 0.0 | 0.00 | 0.00 | 0.00 | 76 | 1016.9 |
| 20260510071031 | 0 | 281 | 0.0 | 0.0 | 0.00 | 0.00 | 0.00 | 75 | 1017.0 |
| 20260510070528 | 0 | 281 | 0.0 | 0.0 | 0.00 | 0.00 | 0.00 | 77 | 1017.0 |
| 20260510070025 | 0 | 281 | 0.0 | 0.0 | 0.00 | 0.00 | 0.00 | 76 | 1016.7 |
| 20260510065521 | 0 | 281 | 0.0 | 0.0 | 0.00 | 0.00 | 0.00 | 76 | 1017.0 |
| 20260510065017 | 0 | 281 | 0.0 | 0.0 | 0.00 | 0.00 | 0.00 | 78 | 1016.7 |
| 20260510064514 | 0 | 281 | 0.0 | 0.0 | 0.00 | 0.00 | 0.00 | 77 | 1016.7 |
| 20260510064010 | 0 | 281 | 0.0 | 0.0 | 0.00 | 0.00 | 0.00 | 77 | 1016.9 |
| 20260510063507 | 0 | 281 | 0.0 | 0.0 | 0.00 | 0.00 | 0.00 | 79 | 1016.9 |
| 20260510063005 | 0 | 281 | 0.0 | 0.0 | 0.00 | 0.00 | 0.00 | 80 | 1017.0 |
| 20260510062500 | 0 | 281 | 0.0 | 0.0 | 0.00 | 0.00 | 0.00 | 79 | 1016.9 |
| 20260510061955 | -1 | 281 | 0.0 | 0.0 | 0.00 | 0.00 | 0.00 | 78 | 1016.9 |
| 20260510061452 | -1 | 281 | 0.0 | 0.0 | 0.00 | 0.00 | 0.00 | 77 | 1016.9 |
| 20260510060949 | -1 | 281 | 0.0 | 0.0 | 0.00 | 0.00 | 0.00 | 78 | 1016.9 |
| 20260510060446 | 0 | 280 | 0.0 | 0.0 | 0.00 | 0.00 | 0.00 | 78 | 1017.1 |
| 20260510055942 | 0 | 281 | 0.0 | 0.0 | 0.00 | 0.00 | 0.00 | 78 | 1016.9 |
| 20260510055438 | 0 | 281 | 0.0 | 0.0 | 0.00 | 0.00 | 0.00 | 79 | 1016.9 |
| 20260510054936 | 0 | 281 | 0.0 | 0.0 | 0.00 | 0.00 | 0.00 | 82 | 1016.9 |
| 20260510054431 | 0 | 281 | 0.0 | 0.0 | 0.00 | 0.00 | 0.00 | 79 | 1016.9 |
| 20260510053926 | 0 | 281 | 0.0 | 0.0 | 0.00 | 0.00 | 0.00 | 77 | 1016.7 |
| 20260510053422 | 0 | 281 | 0.0 | 0.0 | 0.00 | 0.00 | 0.00 | 75 | 1016.9 |
| 20260510052918 | 0 | 281 | 0.0 | 0.0 | 0.00 | 0.00 | 0.00 | 75 | 1016.9 |
| 20260510052414 | 0 | 281 | 0.0 | 0.0 | 0.00 | 0.00 | 0.00 | 75 | 1016.7 |
| 20260510051911 | 0 | 281 | 0.0 | 0.0 | 0.00 | 0.00 | 0.00 | 76 | 1016.9 |
| 20260510051408 | 0 | 281 | 0.0 | 0.0 | 0.00 | 0.00 | 0.00 | 74 | 1016.6 |
| 20260510050904 | 0 | 281 | 0.0 | 0.0 | 0.00 | 0.00 | 0.00 | 75 | 1016.6 |
| 20260510050401 | 0 | 281 | 0.0 | 0.0 | 0.00 | 0.00 | 0.00 | 74 | 1016.5 |
| 20260510045857 | 0 | 281 | 0.0 | 0.0 | 0.00 | 0.00 | 0.00 | 73 | 1016.6 |
| 20260510045354 | 0 | 281 | 0.0 | 0.0 | 0.00 | 0.00 | 0.00 | 74 | 1016.6 |
| 20260510044851 | 0 | 281 | 0.0 | 0.0 | 0.00 | 0.00 | 0.00 | 73 | 1016.5 |
| 20260510044348 | 0 | 281 | 0.0 | 0.0 | 0.00 | 0.00 | 0.00 | 73 | 1016.4 |
| 20260510043845 | 0 | 281 | 0.0 | 0.0 | 0.00 | 0.00 | 0.00 | 71 | 1016.4 |
| 20260510043341 | 0 | 281 | 0.0 | 0.0 | 0.00 | 0.00 | 0.00 | 71 | 1016.5 |
| 20260510042839 | 1 | 281 | 0.0 | 0.0 | 0.00 | 0.00 | 0.00 | 71 | 1016.5 |
| 20260510042334 | 1 | 281 | 0.0 | 0.0 | 0.00 | 0.00 | 0.00 | 72 | 1016.5 |
| 20260510041831 | 1 | 281 | 0.0 | 0.0 | 0.00 | 0.00 | 0.00 | 72 | 1016.4 |
| 20260510041328 | 1 | 281 | 0.0 | 0.0 | 0.00 | 0.00 | 0.00 | 68 | 1016.5 |
| 20260510040826 | 1 | 286 | 0.0 | 0.0 | 0.00 | 0.00 | 0.00 | 66 | 1016.3 |
| 20260510040322 | 2 | 286 | 0.0 | 0.0 | 0.00 | 0.00 | 0.00 | 65 | 1016.4 |
| 20260510035818 | 2 | 286 | 0.0 | 0.0 | 0.00 | 0.00 | 0.00 | 66 | 1016.2 |
| 20260510035314 | 2 | 286 | 0.0 | 0.0 | 0.00 | 0.00 | 0.00 | 66 | 1016.2 |
| 20260510034809 | 2 | 285 | 0.0 | 0.0 | 0.00 | 0.00 | 0.00 | 65 | 1016.1 |
| 20260510034307 | 2 | 284 | 0.0 | 0.0 | 0.00 | 0.00 | 0.00 | 65 | 1016.3 |
| 20260510033803 | 2 | 276 | 0.0 | 0.0 | 0.00 | 0.00 | 0.00 | 66 | 1016.1 |
| 20260510033301 | 2 | 275 | 0.0 | 0.0 | 0.00 | 0.00 | 0.00 | 65 | 1016.1 |
| 20260510032757 | 2 | 273 | 0.0 | 1.6 | 0.00 | 0.00 | 0.00 | 66 | 1016.1 |
| 20260510032253 | 2 | 277 | 0.0 | 0.0 | 0.00 | 0.00 | 0.00 | 66 | 1016.2 |
| 20260510031749 | 2 | 279 | 0.0 | 0.0 | 0.00 | 0.00 | 0.00 | 67 | 1016.0 |
| 20260510031245 | 2 | 279 | 0.0 | 0.0 | 0.00 | 0.00 | 0.00 | 66 | 1015.9 |
| 20260510030744 | 2 | 279 | 0.0 | 0.0 | 0.00 | 0.00 | 0.00 | 66 | 1015.8 |
| 20260510030236 | 2 | 279 | 0.0 | 0.0 | 0.00 | 0.00 | 0.00 | 65 | 1015.8 |
| 20260510025733 | 2 | 279 | 0.0 | 0.0 | 0.00 | 0.00 | 0.00 | 66 | 1015.7 |
| 20260510025232 | 2 | 282 | 0.0 | 0.0 | 0.00 | 0.00 | 0.00 | 66 | 1015.7 |
| 20260510024728 | 2 | 283 | 0.0 | 0.0 | 0.00 | 0.00 | 0.00 | 65 | 1015.9 |
| 20260510024225 | 2 | 283 | 0.0 | 0.0 | 0.00 | 0.00 | 0.00 | 63 | 1016.0 |
| 20260510023720 | 3 | 283 | 0.0 | 0.0 | 0.00 | 0.00 | 0.00 | 67 | 1015.8 |
| 20260510023217 | 3 | 282 | 1.6 | 1.6 | 0.00 | 0.00 | 0.00 | 63 | 1015.8 |
| 20260510022714 | 3 | 284 | 0.0 | 0.0 | 0.00 | 0.00 | 0.00 | 61 | 1015.7 |
| 20260510022208 | 3 | 286 | 0.0 | 0.0 | 0.00 | 0.00 | 0.00 | 61 | 1015.4 |
| 20260510021703 | 4 | 290 | 0.0 | 0.0 | 0.00 | 0.00 | 0.00 | 59 | 1015.3 |
| 20260510021201 | 4 | 290 | 0.0 | 0.0 | 0.00 | 0.00 | 0.00 | 58 | 1015.4 |
| 20260510020655 | 5 | 290 | 0.0 | 0.0 | 0.00 | 0.00 | 0.00 | 56 | 1015.4 |
| 20260510020151 | 5 | 291 | 0.0 | 0.0 | 0.00 | 0.00 | 0.00 | 55 | 1015.1 |
| 20260510015647 | 5 | 288 | 0.0 | 0.0 | 0.00 | 0.00 | 0.00 | 53 | 1015.1 |
| 20260510015144 | 5 | 288 | 0.0 | 0.0 | 0.00 | 0.00 | 0.00 | 55 | 1015.2 |
| 20260510014644 | 5 | 288 | 0.0 | 0.0 | 0.00 | 0.00 | 0.00 | 55 | 1015.2 |
| 20260510014142 | 5 | 288 | 0.0 | 0.0 | 0.00 | 0.00 | 0.00 | 54 | 1014.9 |
| 20260510013637 | 6 | 294 | 0.0 | 0.0 | 0.00 | 0.00 | 0.00 | 51 | 1014.7 |
| 20260510013133 | 6 | 314 | 1.6 | 3.2 | 0.00 | 0.00 | 0.00 | 48 | 1014.9 |
| 20260510012633 | 6 | 310 | 1.6 | 3.2 | 0.00 | 0.00 | 0.00 | 48 | 1014.8 |
| 20260510012129 | 7 | 308 | 1.6 | 3.2 | 0.00 | 0.00 | 0.00 | 46 | 1014.4 |
| 20260510011628 | 7 | 314 | 1.6 | 4.8 | 0.00 | 0.00 | 0.00 | 46 | 1014.6 |
| 20260510011124 | 7 | 333 | 3.2 | 3.2 | 0.00 | 0.00 | 0.00 | 46 | 1014.2 |
| 20260510010620 | 7 | 316 | 1.6 | 6.4 | 0.00 | 0.00 | 0.00 | 45 | 1014.2 |
| 20260510010118 | 7 | 332 | 1.6 | 4.8 | 0.00 | 0.00 | 0.00 | 45 | 1014.2 |
| 20260510005613 | 7 | 301 | 0.0 | 1.6 | 0.00 | 0.00 | 0.00 | 46 | 1014.1 |
| 20260510005111 | 7 | 300 | 1.6 | 1.6 | 0.00 | 0.00 | 0.00 | 45 | 1013.9 |
| 20260510004609 | 7 | 338 | 3.2 | 4.8 | 0.00 | 0.00 | 0.00 | 45 | 1013.9 |
| 20260510004107 | 7 | 312 | 3.2 | 3.2 | 0.00 | 0.00 | 0.00 | 44 | 1013.8 |
| 20260510003603 | 7 | 347 | 3.2 | 3.2 | 0.00 | 0.00 | 0.00 | 44 | 1013.9 |
| 20260510003059 | 7 | 296 | 1.6 | 6.4 | 0.00 | 0.00 | 0.00 | 44 | 1013.6 |
| 20260510002555 | 7 | 306 | 1.6 | 3.2 | 0.00 | 0.00 | 0.00 | 43 | 1013.5 |
| 20260510002052 | 8 | 324 | 1.6 | 3.2 | 0.00 | 0.00 | 0.00 | 43 | 1013.5 |
| 20260510001549 | 8 | 300 | 1.6 | 4.8 | 0.00 | 0.00 | 0.00 | 44 | 1013.4 |
| 20260510001048 | 8 | 327 | 4.8 | 4.8 | 0.00 | 0.00 | 0.00 | 43 | 1013.4 |
| 20260510000548 | 8 | 314 | 1.6 | 4.8 | 0.00 | 0.00 | 0.00 | 43 | 1013.3 |
| 20260510000045 | 8 | 348 | 6.4 | 6.4 | 0.00 | 0.00 | 0.00 | 42 | 1013.2 |
| 20260509235541 | 8 | 326 | 3.2 | 4.8 | 0.00 | 0.00 | 0.00 | 42 | 1013.0 |
| 20260509235038 | 8 | 334 | 3.2 | 4.8 | 0.00 | 0.00 | 0.00 | 43 | 1013.0 |
| 20260509234534 | 8 | 301 | 1.6 | 4.8 | 0.00 | 0.00 | 0.00 | 46 | 1013.1 |
| 20260509234032 | 8 | 291 | 3.2 | 11.3 | 0.00 | 0.00 | 0.00 | 42 | 1012.9 |
| 20260509233529 | 8 | 339 | 4.8 | 9.7 | 0.00 | 0.00 | 0.00 | 42 | 1013.0 |
| 20260509233027 | 8 | 303 | 0.0 | 3.2 | 0.00 | 0.00 | 0.00 | 44 | 1012.9 |
| 20260509232523 | 8 | 317 | 1.6 | 4.8 | 0.00 | 0.00 | 0.00 | 41 | 1012.7 |
| 20260509232020 | 8 | 320 | 1.6 | 4.8 | 0.00 | 0.00 | 0.00 | 40 | 1012.9 |
| 20260509231516 | 8 | 294 | 0.0 | 3.2 | 0.00 | 0.00 | 0.00 | 43 | 1012.9 |
| 20260509231014 | 8 | 302 | 1.6 | 1.6 | 0.00 | 0.00 | 0.00 | 43 | 1012.9 |
| 20260509230511 | 8 | 323 | 1.6 | 3.2 | 0.00 | 0.00 | 0.00 | 42 | 1012.8 |
| 20260509230008 | 8 | 348 | 3.2 | 4.8 | 0.00 | 0.00 | 0.00 | 39 | 1012.7 |
| 20260509225503 | 9 | 283 | 0.0 | 3.2 | 0.00 | 0.00 | 0.00 | 42 | 1012.8 |
| 20260509224959 | 9 | 292 | 0.0 | 3.2 | 0.00 | 0.00 | 0.00 | 41 | 1012.6 |
| 20260509224454 | 8 | 289 | 0.0 | 1.6 | 0.00 | 0.00 | 0.00 | 44 | 1012.5 |
| 20260509223952 | 8 | 332 | 3.2 | 4.8 | 0.00 | 0.00 | 0.00 | 44 | 1012.6 |
| 20260509223448 | 8 | 313 | 1.6 | 4.8 | 0.00 | 0.00 | 0.00 | 41 | 1012.6 |
| 20260509222946 | 8 | 345 | 3.2 | 11.3 | 0.00 | 0.00 | 0.00 | 40 | 1012.6 |
| 20260509222441 | 8 | 255 | 3.2 | 4.8 | 0.00 | 0.00 | 0.00 | 39 | 1012.4 |
| 20260509221937 | 8 | 351 | 6.4 | 17.7 | 0.00 | 0.00 | 0.00 | 39 | 1012.4 |
| 20260509221434 | 9 | 312 | 1.6 | 6.4 | 0.00 | 0.00 | 0.00 | 39 | 1012.4 |
| 20260509220929 | 8 | 335 | 4.8 | 11.3 | 0.00 | 0.00 | 0.00 | 39 | 1012.6 |
| 20260509220426 | 8 | 331 | 1.6 | 11.3 | 0.00 | 0.00 | 0.00 | 41 | 1012.4 |
| 20260509215922 | 8 | 353 | 6.4 | 6.4 | 0.00 | 0.00 | 0.00 | 39 | 1012.3 |
| 20260509215417 | 8 | 293 | 1.6 | 12.9 | 0.00 | 0.00 | 0.00 | 39 | 1012.4 |
| 20260509214915 | 8 | 352 | 6.4 | 14.5 | 0.00 | 0.00 | 0.00 | 39 | 1012.3 |
| 20260509214412 | 8 | 2 | 9.7 | 14.5 | 0.00 | 0.00 | 0.00 | 39 | 1012.3 |
| 20260509213909 | 8 | 353 | 6.4 | 11.3 | 0.00 | 0.00 | 0.00 | 38 | 1012.4 |
| 20260509213405 | 8 | 3 | 4.8 | 12.9 | 0.00 | 0.00 | 0.00 | 38 | 1012.0 |
| 20260509212903 | 9 | 311 | 6.4 | 9.7 | 0.00 | 0.00 | 0.00 | 38 | 1012.0 |
| 20260509212400 | 9 | 315 | 1.6 | 11.3 | 0.00 | 0.00 | 0.00 | 37 | 1012.0 |
| 20260509211856 | 9 | 320 | 6.4 | 9.7 | 0.00 | 0.00 | 0.00 | 38 | 1011.8 |
| 20260509211352 | 8 | 351 | 12.9 | 17.7 | 0.00 | 0.00 | 0.00 | 37 | 1011.6 |
| 20260509210848 | 8 | 337 | 1.6 | 11.3 | 0.00 | 0.00 | 0.00 | 39 | 1011.7 |
| 20260509210346 | 9 | 315 | 1.6 | 12.9 | 0.00 | 0.00 | 0.00 | 39 | 1011.5 |
| 20260509205846 | 8 | 308 | 3.2 | 12.9 | 0.00 | 0.00 | 0.00 | 39 | 1011.5 |
| 20260509205340 | 10 | 357 | 3.2 | 9.7 | 0.00 | 0.00 | 0.00 | 38 | 1011.7 |
| 20260509204837 | 10 | 286 | 3.2 | 12.9 | 0.00 | 0.00 | 0.00 | 38 | 1011.5 |
| 20260509204334 | 10 | 321 | 4.8 | 6.4 | 0.00 | 0.00 | 0.00 | 39 | 1011.4 |
| 20260509203830 | 9 | 291 | 3.2 | 9.7 | 0.00 | 0.00 | 0.00 | 39 | 1011.4 |
| 20260509203327 | 9 | 286 | 3.2 | 11.3 | 0.00 | 0.00 | 0.00 | 39 | 1011.5 |
| 20260509202823 | 10 | 337 | 4.8 | 9.7 | 0.00 | 0.00 | 0.00 | 37 | 1011.3 |
| 20260509202320 | 10 | 316 | 3.2 | 4.8 | 0.00 | 0.00 | 0.00 | 38 | 1011.2 |
| 20260509201818 | 10 | 303 | 4.8 | 9.7 | 0.00 | 0.00 | 0.00 | 38 | 1011.1 |
| 20260509201316 | 10 | 282 | 1.6 | 3.2 | 0.00 | 0.00 | 0.00 | 38 | 1011.1 |
| 20260509200812 | 10 | 327 | 3.2 | 6.4 | 0.00 | 0.00 | 0.00 | 37 | 1011.0 |
| 20260509200308 | 10 | 352 | 6.4 | 12.9 | 0.00 | 0.00 | 0.00 | 39 | 1010.8 |
| 20260509195804 | 10 | 314 | 1.6 | 12.9 | 0.00 | 0.00 | 0.00 | 38 | 1011.1 |
| 20260509195259 | 11 | 281 | 3.2 | 6.4 | 0.00 | 0.00 | 0.00 | 36 | 1010.8 |
| 20260509194759 | 11 | 334 | 9.7 | 16.1 | 0.00 | 0.00 | 0.00 | 36 | 1010.9 |
| 20260509194255 | 10 | 348 | 6.4 | 16.1 | 0.00 | 0.00 | 0.00 | 36 | 1010.6 |
| 20260509193752 | 10 | 13 | 4.8 | 6.4 | 0.00 | 0.00 | 0.00 | 38 | 1010.6 |
| 20260509193247 | 10 | 353 | 4.8 | 14.5 | 0.00 | 0.00 | 0.00 | 36 | 1010.7 |
| 20260509192743 | 10 | 355 | 6.4 | 14.5 | 0.00 | 0.00 | 0.00 | 37 | 1010.6 |
| 20260509192238 | 8 | 0 | 4.8 | 11.3 | 0.00 | 0.00 | 0.00 | 40 | 1010.6 |
| 20260509191734 | 10 | 17 | 6.4 | 11.3 | 0.00 | 0.00 | 0.00 | 39 | 1010.4 |
| 20260509191230 | 10 | 271 | 6.4 | 12.9 | 0.00 | 0.00 | 0.00 | 37 | 1010.5 |
| 20260509190726 | 10 | 308 | 1.6 | 4.8 | 0.00 | 0.00 | 0.00 | 39 | 1010.4 |
| 20260509190223 | 10 | 268 | 4.8 | 9.7 | 0.00 | 0.00 | 0.00 | 37 | 1009.8 |
| 20260509185721 | 10 | 321 | 1.6 | 11.3 | 0.00 | 0.00 | 0.00 | 37 | 1010.2 |
| 20260509185217 | 10 | 292 | 4.8 | 16.1 | 0.00 | 0.00 | 0.00 | 38 | 1010.1 |
| 20260509184715 | 9 | 293 | 1.6 | 14.5 | 0.00 | 0.00 | 0.00 | 40 | 1010.1 |
| 20260509184212 | 10 | 348 | 11.3 | 14.5 | 0.00 | 0.00 | 0.00 | 39 | 1009.7 |
| 20260509183708 | 10 | 253 | 4.8 | 12.9 | 0.00 | 0.00 | 0.00 | 41 | 1009.8 |
| 20260509183203 | 10 | 337 | 4.8 | 14.5 | 0.00 | 0.00 | 0.00 | 40 | 1009.7 |
| 20260509182659 | 9 | 292 | 1.6 | 16.1 | 0.00 | 0.00 | 0.00 | 41 | 1009.5 |
| 20260509182157 | 10 | 345 | 8.0 | 11.3 | 0.00 | 0.00 | 0.00 | 40 | 1009.6 |
| 20260509181654 | 10 | 298 | 1.6 | 9.7 | 0.00 | 0.00 | 0.00 | 40 | 1009.5 |
| 20260509181152 | 10 | 354 | 3.2 | 11.3 | 0.00 | 0.00 | 0.00 | 41 | 1009.4 |
| 20260509180648 | 11 | 8 | 6.4 | 11.3 | 0.00 | 0.00 | 0.00 | 38 | 1009.2 |
| 20260509180144 | 10 | 341 | 6.4 | 12.9 | 0.00 | 0.00 | 0.00 | 38 | 1009.3 |
| 20260509175641 | 11 | 7 | 9.7 | 16.1 | 0.00 | 0.00 | 0.00 | 36 | 1009.1 |
| 20260509175138 | 10 | 3 | 4.8 | 11.3 | 0.00 | 0.00 | 0.00 | 38 | 1008.9 |